Time;durP1;ratioP1;P1;durP2;ratioP2;P2;SDS_P1;SDS_P2;PMS_P1;PMS_P2;Temp;Humidity;BMP_temperature;BMP_pressure;BME280_temperature;BME280_humidity;BME280_pressure;Samples;Min_cycle;Max_cycle;Signal;HPM_P1;HPM_P2
2022/07/15 00:02:05;;;;;;;3.93;2.30;;;17.90;99.90;;;;;;5014006;28;20426;-85
2022/07/15 00:04:31;;;;;;;5.80;3.03;;;17.90;99.90;;;;;;5017300;28;20808;-84
2022/07/15 00:06:57;;;;;;;6.27;2.60;;;17.90;99.90;;;;;;5035452;28;20411;-84
2022/07/15 00:10:13;;;;;;;4.23;2.00;;;17.80;99.90;;;;;;5018027;28;20964;-84
2022/07/15 00:12:09;;;;;;;4.30;2.40;;;17.80;99.90;;;;;;5035379;28;20177;-84
2022/07/15 00:14:35;;;;;;;4.30;2.17;;;17.80;99.90;;;;;;5017642;28;20907;-85
2022/07/15 00:17:01;;;;;;;4.50;2.67;;;17.70;99.90;;;;;;5017331;28;20458;-84
2022/07/15 00:19:26;;;;;;;6.97;2.40;;;17.70;99.90;;;;;;5017938;28;20515;-85
2022/07/15 00:21:52;;;;;;;7.60;3.17;;;17.70;99.90;;;;;;5017815;28;20236;-84
2022/07/15 00:24:17;;;;;;;5.27;2.20;;;17.60;99.90;;;;;;5017463;28;20625;-85
2022/07/15 00:26:43;;;;;;;8.17;2.90;;;17.60;99.90;;;;;;5035022;28;20184;-84
2022/07/15 00:29:08;;;;;;;8.17;2.73;;;17.60;99.90;;;;;;5035489;28;20188;-84
2022/07/15 00:31:34;;;;;;;10.93;2.90;;;17.60;99.90;;;;;;5017638;28;20245;-85
2022/07/15 00:34:00;;;;;;;4.17;2.60;;;17.60;99.90;;;;;;5017480;28;20223;-84
2022/07/15 00:36:25;;;;;;;4.30;2.50;;;17.60;99.90;;;;;;5034869;28;20214;-85
2022/07/15 00:38:51;;;;;;;5.93;2.70;;;17.50;99.90;;;;;;5035298;28;20933;-84
2022/07/15 00:41:16;;;;;;;4.07;2.80;;;17.40;99.90;;;;;;5017495;28;20301;-84
2022/07/15 00:43:42;;;;;;;6.47;2.57;;;17.40;99.90;;;;;;5035065;28;20563;-85
2022/07/15 00:46:08;;;;;;;3.83;2.77;;;17.30;99.90;;;;;;5016991;28;20264;-85
2022/07/15 00:48:33;;;;;;;7.30;2.73;;;17.40;99.90;;;;;;5017094;28;20180;-84
2022/07/15 00:50:59;;;;;;;4.77;2.60;;;17.40;99.90;;;;;;5034980;28;20255;-83
2022/07/15 00:53:28;;;;;;;4.80;2.90;;;17.40;99.90;;;;;;5017155;28;20673;-85
2022/07/15 00:55:58;;;;;;;3.77;1.93;;;17.40;99.90;;;;;;5016790;28;20274;-85
2022/07/15 00:58:26;;;;;;;4.90;2.53;;;17.40;99.90;;;;;;5016950;28;20431;-84
2022/07/15 01:00:54;;;;;;;5.93;3.60;;;17.40;99.90;;;;;;5016951;28;21006;-84
2022/07/15 01:03:20;;;;;;;6.43;2.60;;;17.40;99.90;;;;;;5034786;28;20505;-84
2022/07/15 01:05:47;;;;;;;4.70;2.60;;;17.40;99.90;;;;;;5034259;28;21018;-84
2022/07/15 01:08:14;;;;;;;3.80;2.43;;;17.40;99.90;;;;;;5016770;28;20522;-85
2022/07/15 01:10:41;;;;;;;4.57;2.47;;;17.40;99.90;;;;;;5016685;28;20431;-84
2022/07/15 01:13:07;;;;;;;7.23;2.90;;;17.30;99.90;;;;;;5016702;28;20434;-84
2022/07/15 01:15:33;;;;;;;5.47;2.67;;;17.30;99.90;;;;;;5016342;28;20478;-84
2022/07/15 01:18:01;;;;;;;4.57;2.40;;;17.30;99.90;;;;;;5034475;28;20168;-84
2022/07/15 01:20:27;;;;;;;3.87;2.60;;;17.20;99.90;;;;;;5016555;28;20423;-85
2022/07/15 01:22:52;;;;;;;4.00;2.80;;;17.30;99.90;;;;;;5017022;28;20941;-85
2022/07/15 01:25:18;;;;;;;4.77;2.30;;;17.20;99.90;;;;;;5016423;28;20284;-85
2022/07/15 01:27:43;;;;;;;4.60;2.80;;;17.20;99.90;;;;;;5016417;28;20181;-84
2022/07/15 01:30:09;;;;;;;5.77;3.33;;;17.20;99.90;;;;;;5016530;28;20279;-84
2022/07/15 01:32:35;;;;;;;6.97;3.23;;;17.20;99.90;;;;;;5016522;28;20195;-85
2022/07/15 01:35:00;;;;;;;5.30;2.70;;;17.20;99.90;;;;;;5034263;28;20212;-84
2022/07/15 01:37:26;;;;;;;5.13;3.17;;;17.10;99.90;;;;;;5016163;28;20180;-83
2022/07/15 01:39:52;;;;;;;5.97;3.27;;;17.20;99.90;;;;;;5034072;28;20204;-84
2022/07/15 01:42:18;;;;;;;4.30;3.10;;;17.20;99.90;;;;;;5034037;28;20177;-84
2022/07/15 01:44:43;;;;;;;7.00;3.40;;;17.30;99.90;;;;;;5034133;28;20668;-84
2022/07/15 01:47:09;;;;;;;7.33;3.40;;;17.20;99.90;;;;;;5015994;28;20188;-83
2022/07/15 01:49:35;;;;;;;4.97;2.60;;;17.20;99.90;;;;;;5016400;28;20729;-84
2022/07/15 01:52:02;;;;;;;5.00;3.27;;;17.10;99.90;;;;;;5016300;28;20481;-84
2022/07/15 01:54:30;;;;;;;9.43;2.87;;;17.10;99.90;;;;;;5033710;28;20212;-84
2022/07/15 01:56:56;;;;;;;6.03;2.60;;;17.10;99.90;;;;;;5015595;28;20419;-84
2022/07/15 01:59:23;;;;;;;6.70;3.10;;;17.00;99.90;;;;;;5033857;28;20423;-84
2022/07/15 02:01:51;;;;;;;4.90;2.90;;;17.00;99.90;;;;;;5033636;28;20314;-84
2022/07/15 02:04:17;;;;;;;6.77;3.17;;;16.90;99.90;;;;;;5015892;28;20443;-85
2022/07/15 02:06:43;;;;;;;8.40;3.40;;;17.00;99.90;;;;;;5015471;28;20427;-84
2022/07/15 02:09:09;;;;;;;4.83;3.00;;;17.10;99.90;;;;;;5033543;28;21105;-85
2022/07/15 02:11:35;;;;;;;5.63;3.50;;;17.20;99.90;;;;;;5018414;28;21013;-85
2022/07/15 02:14:02;;;;;;;6.70;2.77;;;17.20;99.90;;;;;;5018498;28;20544;-84
2022/07/15 02:16:29;;;;;;;5.00;3.10;;;17.20;99.90;;;;;;5017761;28;20794;-85
2022/07/15 02:18:55;;;;;;;5.33;3.10;;;17.20;99.90;;;;;;5018709;28;20432;-86
2022/07/15 02:21:21;;;;;;;5.57;3.20;;;17.30;99.90;;;;;;5035865;28;20861;-86
2022/07/15 02:23:47;;;;;;;6.60;3.10;;;17.20;99.90;;;;;;5036066;28;20430;-85
2022/07/15 02:26:12;;;;;;;8.57;3.90;;;17.30;99.90;;;;;;5035129;28;20474;-85
2022/07/15 02:28:38;;;;;;;5.97;3.00;;;17.30;99.90;;;;;;5036106;28;20192;-84
2022/07/15 02:31:05;;;;;;;4.97;3.10;;;17.30;99.90;;;;;;5036252;28;20176;-84
2022/07/15 02:33:31;;;;;;;4.90;3.77;;;17.20;99.90;;;;;;5017831;28;20427;-86
2022/07/15 02:35:56;;;;;;;10.43;3.60;;;17.20;99.90;;;;;;5017478;28;20448;-86
2022/07/15 02:38:22;;;;;;;6.30;3.27;;;17.30;99.90;;;;;;5017786;28;20469;-85
2022/07/15 02:40:48;;;;;;;8.93;3.53;;;17.30;99.90;;;;;;5035484;28;20183;-86
2022/07/15 02:43:14;;;;;;;6.93;2.83;;;17.20;99.90;;;;;;5017670;28;20186;-85
2022/07/15 02:45:41;;;;;;;9.80;4.10;;;17.20;99.90;;;;;;5017423;28;20529;-85
2022/07/15 02:48:07;;;;;;;8.33;3.60;;;17.30;99.90;;;;;;5017463;28;20643;-85
2022/07/15 02:50:33;;;;;;;7.73;3.50;;;17.30;99.90;;;;;;5017711;28;20431;-84
2022/07/15 02:53:00;;;;;;;5.43;3.20;;;17.30;99.90;;;;;;5017265;28;20433;-84
2022/07/15 02:55:26;;;;;;;6.03;3.40;;;17.20;99.90;;;;;;5017314;28;20475;-86
2022/07/15 02:57:52;;;;;;;6.70;4.50;;;17.20;99.90;;;;;;5034477;28;20415;-85
2022/07/15 03:00:19;;;;;;;7.00;3.90;;;17.20;99.90;;;;;;5016875;28;20426;-86
2022/07/15 03:02:45;;;;;;;7.43;3.90;;;17.20;99.90;;;;;;5034655;28;20659;-85
2022/07/15 03:05:12;;;;;;;6.30;3.60;;;17.20;99.90;;;;;;5016362;28;20438;-85
2022/07/15 03:07:38;;;;;;;6.43;3.50;;;17.20;99.90;;;;;;5016262;28;20803;-84
2022/07/15 03:10:05;;;;;;;5.90;3.20;;;17.30;99.90;;;;;;5017149;28;20772;-84
2022/07/15 03:12:31;;;;;;;5.13;3.00;;;17.20;99.90;;;;;;5016944;28;20818;-86
2022/07/15 03:14:57;;;;;;;5.50;3.43;;;17.20;99.90;;;;;;5034776;28;20477;-84
2022/07/15 03:17:23;;;;;;;10.10;3.13;;;17.10;99.90;;;;;;5034082;28;20415;-86
2022/07/15 03:19:48;;;;;;;6.60;3.23;;;17.20;99.90;;;;;;5034908;28;20408;-85
2022/07/15 03:22:14;;;;;;;8.27;4.03;;;17.10;99.90;;;;;;5015938;28;20180;-86
2022/07/15 03:24:40;;;;;;;7.07;3.53;;;17.10;99.90;;;;;;5033443;28;20220;-85
2022/07/15 03:27:05;;;;;;;6.20;3.00;;;17.00;99.90;;;;;;5033894;28;20179;-86
2022/07/15 03:29:31;;;;;;;4.00;2.97;;;17.10;99.90;;;;;;5034157;28;20184;-86
2022/07/15 03:31:57;;;;;;;7.60;3.37;;;17.00;99.90;;;;;;5016545;28;20215;-84
2022/07/15 03:34:25;;;;;;;5.20;3.37;;;17.00;99.90;;;;;;5015445;28;20219;-85
2022/07/15 03:36:52;;;;;;;7.47;3.57;;;17.00;99.90;;;;;;5032803;28;20411;-85
2022/07/15 03:39:18;;;;;;;6.53;2.87;;;17.10;99.90;;;;;;5015407;28;20434;-84
2022/07/15 03:41:43;;;;;;;6.00;3.80;;;17.00;99.90;;;;;;5015927;28;20914;-85
2022/07/15 03:44:09;;;;;;;8.37;3.37;;;17.10;99.90;;;;;;5033899;28;20212;-85
2022/07/15 03:46:35;;;;;;;7.90;3.20;;;17.00;99.90;;;;;;5033011;28;20183;-84
2022/07/15 03:49:02;;;;;;;5.60;3.20;;;17.00;99.90;;;;;;5015637;28;20264;-84
2022/07/15 03:51:31;;;;;;;6.30;3.30;;;17.00;99.90;;;;;;5015559;28;20790;-85
2022/07/15 03:54:02;;;;;;;5.77;3.20;;;17.00;99.90;;;;;;5015540;28;20466;-84
2022/07/15 03:56:29;;;;;;;7.67;3.57;;;16.90;99.90;;;;;;5033176;28;20407;-84
2022/07/15 03:58:55;;;;;;;4.87;3.10;;;17.00;99.90;;;;;;5015088;28;20415;-85
2022/07/15 04:01:21;;;;;;;5.43;3.60;;;16.90;99.90;;;;;;5015411;28;20513;-86
2022/07/15 04:03:50;;;;;;;5.50;3.37;;;16.90;99.90;;;;;;5015062;28;20177;-84
2022/07/15 04:06:16;;;;;;;5.07;3.40;;;16.90;99.90;;;;;;5032554;28;20411;-84
2022/07/15 04:08:43;;;;;;;7.20;3.60;;;16.80;99.90;;;;;;5014862;28;20442;-85
2022/07/15 04:11:10;;;;;;;4.33;3.10;;;16.80;99.90;;;;;;5015434;28;20419;-84
2022/07/15 04:13:36;;;;;;;9.10;3.10;;;16.80;99.90;;;;;;5033215;28;20438;-85
2022/07/15 04:16:01;;;;;;;4.90;3.60;;;16.90;99.90;;;;;;5014405;28;20439;-84
2022/07/15 04:18:27;;;;;;;9.43;3.40;;;16.90;99.90;;;;;;5014681;28;20181;-86
2022/07/15 04:20:53;;;;;;;6.43;3.10;;;16.90;99.90;;;;;;5014739;28;20185;-84
2022/07/15 04:23:18;;;;;;;6.27;3.10;;;16.90;99.90;;;;;;5032887;28;20185;-84
2022/07/15 04:25:44;;;;;;;5.90;2.93;;;16.90;99.90;;;;;;5051387;22;20220;-75
2022/07/15 04:28:10;;;;;;;8.00;3.20;;;16.90;99.90;;;;;;5013755;28;20210;-75
2022/07/15 04:30:39;;;;;;;5.63;2.97;;;16.90;99.90;;;;;;5013618;28;20958;-75
2022/07/15 04:33:04;;;;;;;7.63;3.53;;;16.90;99.90;;;;;;5013554;28;20177;-75
2022/07/15 04:35:30;;;;;;;6.20;2.87;;;16.90;99.90;;;;;;5013780;28;20470;-75
2022/07/15 04:37:56;;;;;;;5.67;3.20;;;17.00;99.90;;;;;;5013226;28;20228;-75
2022/07/15 04:40:22;;;;;;;6.17;3.30;;;17.00;99.90;;;;;;5013552;28;20181;-75
2022/07/15 04:42:48;;;;;;;6.90;3.07;;;17.00;99.90;;;;;;5013416;28;20550;-76
2022/07/15 04:45:14;;;;;;;8.37;2.40;;;17.10;99.90;;;;;;5013442;28;20442;-75
2022/07/15 04:47:40;;;;;;;6.20;3.37;;;17.10;99.90;;;;;;5013059;28;20239;-74
2022/07/15 04:53:10;;;;;;;5.67;2.90;;;17.20;99.90;;;;;;4973501;28;20178;-75
2022/07/15 04:55:35;;;;;;;6.00;3.07;;;17.30;99.90;;;;;;4973378;28;20488;-75
2022/07/15 04:58:01;;;;;;;11.70;3.03;;;17.30;99.90;;;;;;4995234;28;20208;-75
2022/07/15 05:00:27;;;;;;;6.10;2.60;;;17.30;99.90;;;;;;5017089;28;20272;-76
2022/07/15 05:02:53;;;;;;;7.07;3.10;;;17.30;99.90;;;;;;5016740;28;20518;-75
2022/07/15 05:05:19;;;;;;;4.13;3.17;;;17.40;99.90;;;;;;5016735;28;20180;-75
2022/07/15 05:07:45;;;;;;;6.10;3.10;;;17.40;99.90;;;;;;5016352;28;20215;-75
2022/07/15 05:10:12;;;;;;;7.43;3.50;;;17.40;99.90;;;;;;5016854;28;20798;-75
2022/07/15 05:12:39;;;;;;;5.20;2.53;;;17.40;99.90;;;;;;5016550;28;20487;-74
2022/07/15 05:15:05;;;;;;;7.17;3.60;;;17.40;99.90;;;;;;5016362;28;20532;-75
2022/07/15 05:17:32;;;;;;;5.87;3.07;;;17.40;99.90;;;;;;5016082;28;20438;-75
2022/07/15 05:19:57;;;;;;;8.33;3.40;;;17.40;99.90;;;;;;5016459;28;20478;-75
2022/07/15 05:22:23;;;;;;;6.00;3.13;;;17.40;99.90;;;;;;5016350;28;20514;-75
2022/07/15 05:24:49;;;;;;;9.03;4.33;;;17.40;99.90;;;;;;5016355;28;20187;-75
2022/07/15 05:27:15;;;;;;;5.93;3.63;;;17.40;99.90;;;;;;5016015;28;20204;-75
2022/07/15 05:29:41;;;;;;;5.13;3.60;;;17.50;99.90;;;;;;5016259;28;20206;-75
2022/07/15 05:32:07;;;;;;;7.13;3.57;;;17.50;99.90;;;;;;5016318;28;20419;-75
2022/07/15 05:34:33;;;;;;;7.33;3.57;;;17.60;99.90;;;;;;5016018;28;20835;-76
2022/07/15 05:36:58;;;;;;;6.23;3.00;;;17.60;99.90;;;;;;5015927;28;20188;-76
2022/07/15 05:39:27;;;;;;;6.67;2.97;;;17.70;99.90;;;;;;5016052;28;20180;-75
2022/07/15 05:41:53;;;;;;;7.57;3.30;;;17.70;99.90;;;;;;5016105;28;20557;-75
2022/07/15 05:44:19;;;;;;;8.13;3.10;;;17.70;99.90;;;;;;5016000;28;20521;-75
2022/07/15 05:46:44;;;;;;;6.43;3.20;;;17.80;99.90;;;;;;5015729;28;20201;-75
2022/07/15 05:49:10;;;;;;;5.90;3.07;;;17.80;99.90;;;;;;5015772;28;20215;-75
2022/07/15 05:51:37;;;;;;;7.23;3.13;;;17.80;99.90;;;;;;5015948;28;20600;-75
2022/07/15 05:54:03;;;;;;;6.80;3.23;;;17.90;99.90;;;;;;5015971;28;20687;-76
2022/07/15 05:56:29;;;;;;;7.67;3.20;;;17.90;99.90;;;;;;5015716;28;20419;-76
2022/07/15 05:58:55;;;;;;;6.87;3.40;;;18.00;99.90;;;;;;5015642;28;20449;-76
2022/07/15 06:01:23;;;;;;;8.07;3.60;;;18.00;99.90;;;;;;5014803;28;20510;-76
2022/07/15 06:03:49;;;;;;;7.80;3.90;;;17.90;99.90;;;;;;5015567;28;20553;-76
2022/07/15 06:06:16;;;;;;;7.80;3.43;;;17.90;99.90;;;;;;5015451;28;20427;-76
2022/07/15 06:08:42;;;;;;;7.73;3.30;;;17.90;99.90;;;;;;5015437;28;20455;-75
2022/07/15 06:11:08;;;;;;;8.10;3.60;;;17.80;99.90;;;;;;5015439;28;20554;-75
2022/07/15 06:13:34;;;;;;;7.47;3.40;;;17.80;99.90;;;;;;5015430;28;20912;-75
2022/07/15 06:16:00;;;;;;;8.30;3.13;;;17.80;99.90;;;;;;5015221;28;20212;-76
2022/07/15 06:18:26;;;;;;;9.83;3.87;;;17.80;99.90;;;;;;5015325;28;20971;-75
2022/07/15 06:20:52;;;;;;;7.40;3.50;;;17.80;99.90;;;;;;5015465;28;20181;-76
2022/07/15 06:23:18;;;;;;;7.70;4.23;;;17.90;99.90;;;;;;5015256;28;20430;-76
2022/07/15 06:25:44;;;;;;;12.67;4.13;;;17.90;99.90;;;;;;5014904;28;20540;-76
2022/07/15 06:28:10;;;;;;;12.07;4.50;;;17.80;99.90;;;;;;5015024;28;20446;-76
2022/07/15 06:30:36;;;;;;;7.00;3.93;;;17.90;99.90;;;;;;5015298;28;20474;-76
2022/07/15 06:33:02;;;;;;;9.43;3.77;;;18.00;99.90;;;;;;5015090;28;20631;-76
2022/07/15 06:35:28;;;;;;;8.43;4.53;;;18.10;99.90;;;;;;5014991;28;20478;-75
2022/07/15 06:37:54;;;;;;;9.77;4.40;;;18.20;99.90;;;;;;5014822;28;20529;-76
2022/07/15 06:40:20;;;;;;;8.37;5.33;;;18.30;99.90;;;;;;5014894;28;20502;-76
2022/07/15 06:42:46;;;;;;;6.83;4.70;;;18.40;99.90;;;;;;5015009;28;20195;-76
2022/07/15 06:45:12;;;;;;;9.17;5.93;;;18.50;99.90;;;;;;5014960;28;20184;-76
2022/07/15 06:47:42;;;;;;;10.90;6.03;;;18.50;99.90;;;;;;5014518;28;20949;-75
2022/07/15 06:50:09;;;;;;;10.73;6.80;;;18.60;99.90;;;;;;5014808;28;20427;-75
2022/07/15 06:52:35;;;;;;;9.73;5.80;;;18.70;99.90;;;;;;5014820;28;20450;-75
2022/07/15 06:55:01;;;;;;;10.53;5.67;;;18.90;99.90;;;;;;5014561;28;20473;-75
2022/07/15 06:57:28;;;;;;;6.37;4.23;;;19.00;99.90;;;;;;5014332;28;21044;-75
2022/07/15 06:59:54;;;;;;;8.07;4.27;;;19.10;99.90;;;;;;5014669;28;20469;-76
2022/07/15 07:02:20;;;;;;;5.53;3.20;;;19.20;99.90;;;;;;5014600;28;20426;-76
2022/07/15 07:04:46;;;;;;;5.90;3.30;;;19.20;99.90;;;;;;5014595;28;20793;-76
2022/07/15 07:07:12;;;;;;;8.97;3.70;;;19.10;99.90;;;;;;5014209;28;20291;-75
2022/07/15 07:09:38;;;;;;;4.23;2.80;;;19.30;99.90;;;;;;5014365;28;20188;-75
2022/07/15 07:12:04;;;;;;;5.80;3.03;;;19.40;99.90;;;;;;5014367;28;20426;-76
2022/07/15 07:14:30;;;;;;;5.00;3.40;;;19.40;99.90;;;;;;5014212;28;20219;-75
2022/07/15 07:16:56;;;;;;;9.07;4.47;;;19.40;99.90;;;;;;5014035;28;20419;-75
2022/07/15 07:19:25;;;;;;;8.13;4.30;;;19.40;99.90;;;;;;5014278;28;20182;-75
2022/07/15 07:21:50;;;;;;;11.40;4.90;;;19.40;99.90;;;;;;5014438;28;20435;-76
2022/07/15 07:24:17;;;;;;;7.30;3.73;;;19.30;99.90;;;;;;5014081;28;20818;-75
2022/07/15 07:26:43;;;;;;;10.70;4.30;;;19.40;99.90;;;;;;5013941;28;20203;-76
2022/07/15 07:29:11;;;;;;;6.87;3.87;;;19.50;99.90;;;;;;5014119;28;20457;-76
2022/07/15 07:31:37;;;;;;;8.20;4.40;;;19.60;99.90;;;;;;5014200;28;20434;-76
2022/07/15 07:34:03;;;;;;;7.33;3.57;;;19.60;99.90;;;;;;5013983;28;20468;-76
2022/07/15 07:36:29;;;;;;;11.30;4.00;;;19.70;99.90;;;;;;5013821;28;20419;-75
2022/07/15 07:38:55;;;;;;;7.90;2.97;;;19.90;99.90;;;;;;5013974;28;20227;-75
2022/07/15 07:41:21;;;;;;;6.97;3.87;;;20.10;99.90;;;;;;5014113;28;20180;-75
2022/07/15 07:43:47;;;;;;;7.67;3.10;;;20.30;99.90;;;;;;5013985;28;20234;-75
2022/07/15 07:46:13;;;;;;;4.40;3.10;;;20.50;99.90;;;;;;5013807;28;20180;-75
2022/07/15 07:48:40;;;;;;;6.13;3.13;;;20.90;99.90;;;;;;5013943;28;20530;-76
2022/07/15 07:51:06;;;;;;;5.67;3.00;;;21.10;99.90;;;;;;5013936;28;20419;-76
2022/07/15 07:53:32;;;;;;;5.73;2.87;;;21.10;99.90;;;;;;5013910;28;20458;-76
2022/07/15 07:55:58;;;;;;;5.47;2.93;;;21.20;99.90;;;;;;5013563;28;20502;-75
2022/07/15 07:58:24;;;;;;;7.43;2.83;;;21.20;99.90;;;;;;5013839;28;20200;-75
2022/07/15 08:00:52;;;;;;;9.07;2.80;;;21.10;99.90;;;;;;5013780;28;20476;-76
2022/07/15 08:03:18;;;;;;;4.70;2.50;;;21.10;99.90;;;;;;5014107;28;20191;-75
2022/07/15 08:05:44;;;;;;;6.27;2.83;;;21.10;99.90;;;;;;5013455;28;20431;-76
2022/07/15 08:08:19;;;;;;;6.63;2.97;;;21.10;99.90;;;;;;5013788;28;20447;-75
2022/07/15 08:10:48;;;;;;;7.93;3.43;;;21.20;99.90;;;;;;5013790;28;20431;-75
2022/07/15 08:13:15;;;;;;;7.47;2.60;;;21.80;99.90;;;;;;5013973;28;20431;-76
2022/07/15 08:15:41;;;;;;;5.37;2.47;;;23.10;99.90;;;;;;5013456;28;20560;-76
2022/07/15 08:18:07;;;;;;;5.97;2.70;;;24.30;99.90;;;;;;5013719;28;20479;-76
2022/07/15 08:20:33;;;;;;;6.30;2.40;;;24.90;99.90;;;;;;5013585;28;20480;-76
2022/07/15 08:22:59;;;;;;;7.80;2.13;;;25.00;98.20;;;;;;5013774;28;20871;-76
2022/07/15 08:25:31;;;;;;;6.63;2.63;;;25.70;92.60;;;;;;5016653;28;20291;-76
2022/07/15 08:27:58;;;;;;;3.90;2.50;;;25.20;92.60;;;;;;5017230;28;20438;-76
2022/07/15 08:30:29;;;;;;;3.93;2.40;;;26.20;91.30;;;;;;5017338;28;20782;-76
2022/07/15 08:32:58;;;;;;;4.73;2.53;;;27.40;85.60;;;;;;5017375;28;20430;-76
2022/07/15 08:35:25;;;;;;;7.53;2.40;;;26.70;82.70;;;;;;5017217;28;20908;-76
2022/07/15 08:37:52;;;;;;;7.83;2.77;;;25.60;84.70;;;;;;5017059;28;20474;-75
2022/07/15 08:40:18;;;;;;;5.63;2.70;;;24.40;89.40;;;;;;5017271;28;20526;-76
2022/07/15 08:42:46;;;;;;;4.70;2.47;;;25.10;90.60;;;;;;5017278;28;20458;-76
2022/07/15 08:45:13;;;;;;;4.33;2.30;;;26.60;89.60;;;;;;5017067;28;20427;-76
2022/07/15 08:47:42;;;;;;;5.97;2.60;;;26.90;84.70;;;;;;5016798;28;20452;-76
2022/07/15 08:50:11;;;;;;;5.87;2.67;;;27.00;80.00;;;;;;5017183;28;20477;-76
2022/07/15 08:52:38;;;;;;;6.37;2.43;;;26.90;77.80;;;;;;5017026;28;20430;-76
2022/07/15 08:55:06;;;;;;;5.50;2.80;;;26.20;79.70;;;;;;5017009;28;20649;-76
2022/07/15 08:57:32;;;;;;;3.90;2.33;;;25.60;80.40;;;;;;5016655;28;20427;-76
2022/07/15 08:59:57;;;;;;;4.33;2.60;;;25.30;81.90;;;;;;5016818;28;20944;-76
2022/07/15 09:02:23;;;;;;;4.90;2.70;;;25.10;85.60;;;;;;5016967;28;20430;-76
2022/07/15 09:05:17;;;;;;;5.07;2.10;;;24.90;87.90;;;;;;5016911;28;20271;-76
2022/07/15 09:07:55;;;;;;;5.10;1.80;;;24.50;88.80;;;;;;5016488;28;20483;-75
2022/07/15 09:10:43;;;;;;;3.43;1.50;;;24.90;91.00;;;;;;5017181;28;20934;-75
2022/07/15 09:13:11;;;;;;;5.20;1.30;;;27.50;82.30;;;;;;5016882;28;20433;-76
2022/07/15 09:15:40;;;;;;;3.63;1.50;;;28.70;74.50;;;;;;5016556;28;20471;-76
2022/07/15 09:18:07;;;;;;;3.87;1.20;;;28.20;68.60;;;;;;5016559;28;20545;-76
2022/07/15 09:20:35;;;;;;;6.63;1.70;;;27.70;68.30;;;;;;5016615;28;20422;-76
2022/07/15 09:23:02;;;;;;;4.40;1.47;;;27.10;68.50;;;;;;5016472;28;20431;-76
2022/07/15 09:25:28;;;;;;;5.93;1.73;;;26.60;72.20;;;;;;5016288;28;20454;-76
2022/07/15 09:27:54;;;;;;;4.70;1.60;;;27.40;74.60;;;;;;5016170;28;20458;-76
2022/07/15 09:36:11;;;;;;;3.43;1.10;;;32.80;57.00;;;;;;5033245;28;20550;-76
2022/07/15 09:38:44;;;;;;;4.57;1.60;;;34.40;51.00;;;;;;5018059;28;20443;-76
2022/07/15 09:41:20;;;;;;;3.70;1.50;;;35.30;48.70;;;;;;5018394;28;20420;-76
2022/07/15 09:43:57;;;;;;;2.70;1.30;;;36.60;45.00;;;;;;5018790;28;20521;-76
2022/07/15 09:46:27;;;;;;;3.90;1.40;;;37.80;42.00;;;;;;5020218;28;20780;-77
2022/07/15 09:48:53;;;;;;;5.97;1.50;;;38.30;37.30;;;;;;5018828;28;20438;-77
2022/07/15 09:51:20;;;;;;;3.63;1.60;;;37.00;36.00;;;;;;5018878;28;20419;-77
2022/07/15 09:53:46;;;;;;;3.13;1.20;;;36.30;37.20;;;;;;5018077;28;20427;-76
2022/07/15 09:56:21;;;;;;;4.33;1.10;;;34.60;38.20;;;;;;5016674;28;20443;-76
2022/07/15 09:58:47;;;;;;;3.67;1.27;;;32.80;39.50;;;;;;5016845;28;20286;-76
2022/07/15 10:01:13;;;;;;;3.40;1.20;;;31.40;42.00;;;;;;5017610;28;20460;-76
2022/07/15 10:03:40;;;;;;;3.40;1.20;;;30.00;42.20;;;;;;5016173;28;20473;-76
2022/07/15 10:06:06;;;;;;;5.00;1.50;;;28.80;43.60;;;;;;5015496;28;20485;-76
2022/07/15 10:08:34;;;;;;;4.60;1.33;;;28.00;46.90;;;;;;5015735;28;20443;-76
2022/07/15 10:11:00;;;;;;;4.20;1.70;;;29.00;48.80;;;;;;5015996;28;20423;-76
2022/07/15 10:13:42;;;;;;;5.20;1.47;;;31.50;48.40;;;;;;5015805;28;20423;-77
2022/07/15 10:16:08;;;;;;;4.43;1.60;;;33.70;45.00;;;;;;5016050;28;20494;-76
2022/07/15 10:18:45;;;;;;;2.83;1.50;;;35.90;39.80;;;;;;5017190;28;20450;-77
2022/07/15 10:21:24;;;;;;;4.87;1.70;;;37.20;38.50;;;;;;5017410;28;20234;-76
2022/07/15 10:24:09;;;;;;;3.23;1.40;;;38.00;37.00;;;;;;5018092;28;20414;-77
2022/07/15 10:26:48;;;;;;;3.10;1.30;;;35.70;36.30;;;;;;5041108;23;20512;-84
2022/07/15 10:29:15;;;;;;;5.10;1.30;;;33.70;38.20;;;;;;5053277;28;20415;-85
2022/07/15 10:31:43;;;;;;;3.40;1.50;;;31.90;38.50;;;;;;5053141;28;20452;-84
2022/07/15 10:34:12;;;;;;;3.63;1.50;;;30.60;39.90;;;;;;5053161;28;20472;-84
2022/07/15 10:36:46;;;;;;;3.83;1.60;;;29.20;40.60;;;;;;5052674;28;20429;-85
2022/07/15 10:39:23;;;;;;;4.10;1.43;;;28.30;42.50;;;;;;5053117;28;20415;-85
2022/07/15 10:42:00;;;;;;;3.87;1.43;;;27.80;42.70;;;;;;5053027;28;20437;-84
2022/07/15 10:44:29;;;;;;;3.17;1.33;;;27.90;43.60;;;;;;5051691;28;20433;-85
2022/07/15 10:47:13;;;;;;;2.80;1.23;;;28.10;43.00;;;;;;5051962;28;20432;-85
2022/07/15 10:49:43;;;;;;;5.40;1.50;;;28.10;42.70;;;;;;5052835;28;20425;-85
2022/07/15 10:52:22;;;;;;;3.60;1.23;;;28.30;44.90;;;;;;5052678;28;20422;-85
2022/07/15 10:55:01;;;;;;;2.87;1.40;;;28.50;44.20;;;;;;5051659;28;21010;-85
2022/07/15 10:57:52;;;;;;;4.13;1.40;;;28.40;45.10;;;;;;5051017;28;20793;-85
2022/07/15 11:00:22;;;;;;;2.90;1.30;;;28.30;44.90;;;;;;5043168;28;20804;-85
2022/07/15 11:03:18;;;;;;;3.20;1.33;;;28.00;45.00;;;;;;5052330;28;20787;-84
2022/07/15 11:05:56;;;;;;;3.17;1.27;;;27.80;45.30;;;;;;5039492;28;20434;-85
2022/07/15 11:08:31;;;;;;;3.03;1.40;;;27.90;47.00;;;;;;5052477;28;20413;-85
2022/07/15 11:11:17;;;;;;;2.70;1.57;;;28.00;47.80;;;;;;5052593;28;20418;-84
2022/07/15 11:13:46;;;;;;;2.20;1.37;;;27.90;47.60;;;;;;5052465;28;20426;-84
2022/07/15 11:16:13;;;;;;;5.20;1.40;;;27.40;46.80;;;;;;5052031;28;20842;-82
2022/07/15 11:18:50;;;;;;;3.30;1.30;;;27.20;46.80;;;;;;5052136;28;20432;-82
2022/07/15 11:21:17;;;;;;;5.70;1.30;;;27.00;46.30;;;;;;5052224;28;20511;-82
2022/07/15 11:23:44;;;;;;;5.60;1.50;;;26.90;46.40;;;;;;5050909;28;20410;-82
2022/07/15 11:26:10;;;;;;;5.07;2.00;;;27.30;47.10;;;;;;5051877;28;20219;-82
2022/07/15 11:28:36;;;;;;;2.60;1.20;;;27.80;45.90;;;;;;5051980;28;20779;-82
2022/07/15 11:31:02;;;;;;;3.70;1.13;;;28.20;47.00;;;;;;5051084;28;20191;-81
2022/07/15 11:33:30;;;;;;;5.17;1.50;;;28.00;45.00;;;;;;5052198;28;20414;-82
2022/07/15 11:35:55;;;;;;;3.27;1.20;;;27.90;45.60;;;;;;5051990;28;20218;-82
2022/07/15 11:38:26;;;;;;;4.90;1.27;;;27.30;46.30;;;;;;5051737;28;20505;-82
2022/07/15 11:46:30;;;;;;;2.57;1.10;;;26.70;48.00;;;;;;5051687;28;20437;-82
2022/07/15 11:48:57;;;;;;;2.50;1.67;;;26.30;48.00;;;;;;5051937;28;20414;-82
2022/07/15 11:51:29;;;;;;;2.63;1.53;;;26.20;48.90;;;;;;5050473;28;20438;-81
2022/07/15 11:53:55;;;;;;;4.20;1.40;;;26.20;49.70;;;;;;5051736;28;20484;-81
2022/07/15 11:56:21;;;;;;;3.77;1.10;;;26.20;47.60;;;;;;5051642;28;20486;-81
2022/07/15 11:58:53;;;;;;;2.53;1.10;;;26.20;49.20;;;;;;5053526;28;20499;-82
2022/07/15 12:01:24;;;;;;;3.20;1.67;;;26.40;49.30;;;;;;5057904;28;21030;-83
2022/07/15 12:03:53;;;;;;;2.43;1.30;;;26.40;48.70;;;;;;5057339;28;20501;-82
2022/07/15 12:06:30;;;;;;;3.60;1.40;;;26.40;49.50;;;;;;5057801;28;20484;-82
2022/07/15 12:09:03;;;;;;;6.17;1.47;;;26.60;48.30;;;;;;5056044;28;20936;-81
2022/07/15 12:11:36;;;;;;;6.80;1.77;;;26.40;47.90;;;;;;5057764;28;20446;-81
2022/07/15 12:14:09;;;;;;;3.10;1.30;;;26.10;49.20;;;;;;5057325;28;20424;-81
2022/07/15 12:16:35;;;;;;;2.73;1.47;;;25.80;48.40;;;;;;5057037;28;20838;-84
2022/07/15 12:19:12;;;;;;;4.00;1.40;;;25.60;48.40;;;;;;5055654;28;20471;-84
2022/07/15 12:21:39;;;;;;;3.83;1.10;;;25.30;48.60;;;;;;5056644;28;20175;-84
2022/07/15 12:24:11;;;;;;;4.40;1.60;;;25.30;50.30;;;;;;5056413;28;20441;-84
2022/07/15 12:26:57;;;;;;;4.30;1.20;;;25.30;51.10;;;;;;5054798;28;21044;-84
2022/07/15 12:29:25;;;;;;;4.10;1.10;;;25.50;51.70;;;;;;5056495;28;20406;-82
2022/07/15 12:31:56;;;;;;;3.60;1.23;;;25.80;50.20;;;;;;5054603;28;20437;-82
2022/07/15 12:34:43;;;;;;;2.80;1.23;;;26.10;51.60;;;;;;5056198;28;20454;-82
2022/07/15 12:37:08;;;;;;;6.37;1.50;;;26.00;50.00;;;;;;5055883;28;20928;-82
2022/07/15 12:39:52;;;;;;;4.87;1.43;;;26.00;49.60;;;;;;5054078;28;20426;-82
2022/07/15 12:42:18;;;;;;;6.30;1.40;;;26.00;50.40;;;;;;5054595;28;20570;-82
2022/07/15 12:44:43;;;;;;;3.60;1.47;;;26.10;50.60;;;;;;5054419;28;20433;-81
2022/07/15 12:47:09;;;;;;;5.20;1.30;;;26.40;50.00;;;;;;5054999;28;20204;-83
2022/07/15 12:49:41;;;;;;;3.43;1.50;;;26.10;49.90;;;;;;5055507;28;20184;-81
2022/07/15 12:52:21;;;;;;;5.00;1.40;;;25.90;50.30;;;;;;5055330;28;20176;-81
2022/07/15 12:54:49;;;;;;;3.87;1.30;;;25.80;49.90;;;;;;5055347;28;20948;-81
2022/07/15 12:57:21;;;;;;;4.00;1.53;;;25.70;51.10;;;;;;5054784;28;20426;-81
2022/07/15 13:00:10;;;;;;;4.17;1.30;;;25.70;52.10;;;;;;5055255;28;20839;-81
2022/07/15 13:02:58;;;;;;;2.63;1.20;;;25.90;49.80;;;;;;5055235;28;20418;-81
2022/07/15 13:05:24;;;;;;;4.60;2.63;;;26.10;49.50;;;;;;5053925;28;20511;-82